sensor_id;sensor_type;location;lat;lon;timestamp;P1;durP1;ratioP1;P2;durP2;ratioP2
60478;SDS011;46321;48.398;11.754;2022-09-27T00:02:16;1.52;;;1.20;;
60478;SDS011;46321;48.398;11.754;2022-09-27T00:04:41;1.83;;;1.17;;
60478;SDS011;46321;48.398;11.754;2022-09-27T00:07:06;2.58;;;1.40;;
60478;SDS011;46321;48.398;11.754;2022-09-27T00:09:32;1.45;;;1.20;;
60478;SDS011;46321;48.398;11.754;2022-09-27T00:11:57;1.23;;;1.08;;
60478;SDS011;46321;48.398;11.754;2022-09-27T00:14:23;1.77;;;1.27;;
60478;SDS011;46321;48.398;11.754;2022-09-27T00:16:48;2.08;;;1.27;;
60478;SDS011;46321;48.398;11.754;2022-09-27T00:19:14;4.78;;;1.42;;
60478;SDS011;46321;48.398;11.754;2022-09-27T00:21:42;3.50;;;1.50;;
60478;SDS011;46321;48.398;11.754;2022-09-27T00:24:11;2.28;;;1.58;;
60478;SDS011;46321;48.398;11.754;2022-09-27T00:26:38;2.10;;;1.42;;
60478;SDS011;46321;48.398;11.754;2022-09-27T00:29:03;2.83;;;1.50;;
60478;SDS011;46321;48.398;11.754;2022-09-27T00:31:30;2.25;;;1.40;;
60478;SDS011;46321;48.398;11.754;2022-09-27T00:33:56;2.03;;;1.25;;
60478;SDS011;46321;48.398;11.754;2022-09-27T00:36:23;2.47;;;1.40;;
60478;SDS011;46321;48.398;11.754;2022-09-27T00:38:49;3.80;;;1.38;;
60478;SDS011;46321;48.398;11.754;2022-09-27T00:41:16;2.55;;;1.30;;
60478;SDS011;46321;48.398;11.754;2022-09-27T00:43:46;1.67;;;1.15;;
60478;SDS011;46321;48.398;11.754;2022-09-27T00:46:27;1.75;;;1.27;;
60478;SDS011;46321;48.398;11.754;2022-09-27T00:49:01;1.83;;;1.30;;
60478;SDS011;46321;48.398;11.754;2022-09-27T00:51:47;1.88;;;1.50;;
60478;SDS011;46321;48.398;11.754;2022-09-27T00:54:15;2.55;;;1.25;;
60478;SDS011;46321;48.398;11.754;2022-09-27T00:56:42;2.03;;;1.30;;
60478;SDS011;46321;48.398;11.754;2022-09-27T00:59:16;2.20;;;1.50;;
60478;SDS011;46321;48.398;11.754;2022-09-27T01:01:50;2.30;;;1.35;;
60478;SDS011;46321;48.398;11.754;2022-09-27T01:04:17;2.88;;;1.70;;
60478;SDS011;46321;48.398;11.754;2022-09-27T01:06:48;2.35;;;1.60;;
60478;SDS011;46321;48.398;11.754;2022-09-27T01:09:13;2.25;;;1.42;;
60478;SDS011;46321;48.398;11.754;2022-09-27T01:14:15;2.88;;;1.30;;
60478;SDS011;46321;48.398;11.754;2022-09-27T01:17:02;2.80;;;1.27;;
60478;SDS011;46321;48.398;11.754;2022-09-27T01:19:45;2.70;;;1.58;;
60478;SDS011;46321;48.398;11.754;2022-09-27T01:22:18;2.33;;;1.52;;
60478;SDS011;46321;48.398;11.754;2022-09-27T01:30:39;2.85;;;1.65;;
60478;SDS011;46321;48.398;11.754;2022-09-27T01:42:26;3.58;;;1.70;;
60478;SDS011;46321;48.398;11.754;2022-09-27T01:48:19;2.35;;;1.60;;
60478;SDS011;46321;48.398;11.754;2022-09-27T01:50:49;2.45;;;1.50;;
60478;SDS011;46321;48.398;11.754;2022-09-27T01:53:52;2.42;;;1.60;;
60478;SDS011;46321;48.398;11.754;2022-09-27T01:56:25;2.28;;;1.42;;
60478;SDS011;46321;48.398;11.754;2022-09-27T01:59:08;5.70;;;2.42;;
60478;SDS011;46321;48.398;11.754;2022-09-27T02:01:38;4.68;;;1.63;;
60478;SDS011;46321;48.398;11.754;2022-09-27T02:04:08;2.45;;;1.55;;
60478;SDS011;46321;48.398;11.754;2022-09-27T02:06:42;5.40;;;1.60;;
60478;SDS011;46321;48.398;11.754;2022-09-27T02:09:12;3.42;;;1.80;;
60478;SDS011;46321;48.398;11.754;2022-09-27T02:11:43;2.92;;;1.50;;
60478;SDS011;46321;48.398;11.754;2022-09-27T02:16:49;6.25;;;2.22;;
60478;SDS011;46321;48.398;11.754;2022-09-27T02:25:22;2.70;;;1.67;;
60478;SDS011;46321;48.398;11.754;2022-09-27T02:28:05;2.80;;;1.58;;
60478;SDS011;46321;48.398;11.754;2022-09-27T02:30:50;2.83;;;2.05;;
60478;SDS011;46321;48.398;11.754;2022-09-27T02:33:17;2.95;;;1.60;;
60478;SDS011;46321;48.398;11.754;2022-09-27T02:35:46;2.58;;;1.67;;
60478;SDS011;46321;48.398;11.754;2022-09-27T02:38:12;2.95;;;1.80;;
60478;SDS011;46321;48.398;11.754;2022-09-27T02:40:45;2.67;;;1.75;;
60478;SDS011;46321;48.398;11.754;2022-09-27T02:43:11;3.97;;;1.70;;
60478;SDS011;46321;48.398;11.754;2022-09-27T02:45:53;2.58;;;1.30;;
60478;SDS011;46321;48.398;11.754;2022-09-27T03:02:30;1.92;;;1.30;;
60478;SDS011;46321;48.398;11.754;2022-09-27T03:05:08;1.52;;;1.00;;
60478;SDS011;46321;48.398;11.754;2022-09-27T03:07:41;1.33;;;0.88;;
60478;SDS011;46321;48.398;11.754;2022-09-27T03:10:13;1.63;;;1.02;;
60478;SDS011;46321;48.398;11.754;2022-09-27T03:12:42;2.20;;;1.30;;
60478;SDS011;46321;48.398;11.754;2022-09-27T03:15:09;2.42;;;1.02;;
60478;SDS011;46321;48.398;11.754;2022-09-27T03:17:34;2.75;;;1.17;;
60478;SDS011;46321;48.398;11.754;2022-09-27T03:20:00;2.63;;;1.10;;
60478;SDS011;46321;48.398;11.754;2022-09-27T03:22:25;2.85;;;1.02;;
60478;SDS011;46321;48.398;11.754;2022-09-27T03:24:51;1.60;;;1.00;;
60478;SDS011;46321;48.398;11.754;2022-09-27T03:27:16;2.90;;;1.23;;
60478;SDS011;46321;48.398;11.754;2022-09-27T03:29:42;1.98;;;1.30;;
60478;SDS011;46321;48.398;11.754;2022-09-27T03:32:07;6.07;;;1.17;;
60478;SDS011;46321;48.398;11.754;2022-09-27T03:34:32;2.03;;;1.00;;
60478;SDS011;46321;48.398;11.754;2022-09-27T03:36:58;1.90;;;1.27;;
60478;SDS011;46321;48.398;11.754;2022-09-27T03:39:23;1.73;;;1.30;;
60478;SDS011;46321;48.398;11.754;2022-09-27T03:41:48;3.88;;;1.27;;
60478;SDS011;46321;48.398;11.754;2022-09-27T03:44:14;2.47;;;1.40;;
60478;SDS011;46321;48.398;11.754;2022-09-27T03:46:39;1.95;;;1.33;;
60478;SDS011;46321;48.398;11.754;2022-09-27T03:49:04;1.50;;;1.30;;
60478;SDS011;46321;48.398;11.754;2022-09-27T03:51:29;2.25;;;1.23;;
60478;SDS011;46321;48.398;11.754;2022-09-27T03:53:55;2.55;;;1.50;;
60478;SDS011;46321;48.398;11.754;2022-09-27T03:56:21;3.92;;;1.50;;
60478;SDS011;46321;48.398;11.754;2022-09-27T03:58:46;2.03;;;1.50;;
60478;SDS011;46321;48.398;11.754;2022-09-27T04:01:12;2.17;;;1.60;;
60478;SDS011;46321;48.398;11.754;2022-09-27T04:03:38;2.58;;;1.83;;
60478;SDS011;46321;48.398;11.754;2022-09-27T04:06:03;3.67;;;1.73;;
60478;SDS011;46321;48.398;11.754;2022-09-27T04:08:28;2.83;;;1.80;;
60478;SDS011;46321;48.398;11.754;2022-09-27T04:10:54;2.45;;;1.73;;
60478;SDS011;46321;48.398;11.754;2022-09-27T04:13:20;6.93;;;1.77;;
60478;SDS011;46321;48.398;11.754;2022-09-27T04:15:46;3.35;;;2.08;;
60478;SDS011;46321;48.398;11.754;2022-09-27T04:18:11;2.85;;;2.10;;
60478;SDS011;46321;48.398;11.754;2022-09-27T04:20:36;3.60;;;1.80;;
60478;SDS011;46321;48.398;11.754;2022-09-27T04:23:02;3.15;;;1.63;;
60478;SDS011;46321;48.398;11.754;2022-09-27T04:25:27;5.57;;;1.80;;
60478;SDS011;46321;48.398;11.754;2022-09-27T04:27:53;3.78;;;2.10;;
60478;SDS011;46321;48.398;11.754;2022-09-27T04:30:19;2.30;;;1.60;;
60478;SDS011;46321;48.398;11.754;2022-09-27T04:32:46;2.85;;;1.73;;
60478;SDS011;46321;48.398;11.754;2022-09-27T04:35:12;2.10;;;1.52;;
60478;SDS011;46321;48.398;11.754;2022-09-27T04:37:56;2.58;;;1.65;;
60478;SDS011;46321;48.398;11.754;2022-09-27T04:40:22;2.63;;;1.33;;
60478;SDS011;46321;48.398;11.754;2022-09-27T04:42:48;2.65;;;1.80;;
60478;SDS011;46321;48.398;11.754;2022-09-27T04:45:13;2.97;;;1.65;;
60478;SDS011;46321;48.398;11.754;2022-09-27T04:47:42;2.60;;;1.65;;
60478;SDS011;46321;48.398;11.754;2022-09-27T04:50:12;3.03;;;1.70;;
60478;SDS011;46321;48.398;11.754;2022-09-27T04:52:38;2.08;;;1.40;;
60478;SDS011;46321;48.398;11.754;2022-09-27T04:55:04;2.22;;;1.40;;
60478;SDS011;46321;48.398;11.754;2022-09-27T04:57:30;1.80;;;1.30;;
60478;SDS011;46321;48.398;11.754;2022-09-27T04:59:55;2.08;;;1.40;;
60478;SDS011;46321;48.398;11.754;2022-09-27T05:02:24;1.75;;;1.30;;
60478;SDS011;46321;48.398;11.754;2022-09-27T05:04:49;1.88;;;1.10;;
60478;SDS011;46321;48.398;11.754;2022-09-27T05:07:14;2.60;;;1.05;;
60478;SDS011;46321;48.398;11.754;2022-09-27T05:09:39;2.60;;;1.23;;
60478;SDS011;46321;48.398;11.754;2022-09-27T05:12:05;2.10;;;1.20;;
60478;SDS011;46321;48.398;11.754;2022-09-27T05:14:33;2.17;;;1.00;;
60478;SDS011;46321;48.398;11.754;2022-09-27T05:16:59;0.98;;;0.70;;
60478;SDS011;46321;48.398;11.754;2022-09-27T05:19:24;1.20;;;0.80;;
60478;SDS011;46321;48.398;11.754;2022-09-27T05:21:49;1.45;;;1.00;;
60478;SDS011;46321;48.398;11.754;2022-09-27T05:24:14;1.27;;;0.90;;
60478;SDS011;46321;48.398;11.754;2022-09-27T05:26:40;1.52;;;0.70;;
60478;SDS011;46321;48.398;11.754;2022-09-27T05:29:05;1.40;;;0.77;;
60478;SDS011;46321;48.398;11.754;2022-09-27T05:31:31;0.63;;;0.60;;
60478;SDS011;46321;48.398;11.754;2022-09-27T05:33:56;1.70;;;0.88;;
60478;SDS011;46321;48.398;11.754;2022-09-27T05:36:22;1.10;;;0.70;;
60478;SDS011;46321;48.398;11.754;2022-09-27T05:38:47;1.13;;;0.63;;
60478;SDS011;46321;48.398;11.754;2022-09-27T05:41:13;1.02;;;0.70;;
60478;SDS011;46321;48.398;11.754;2022-09-27T05:43:39;0.40;;;0.40;;
60478;SDS011;46321;48.398;11.754;2022-09-27T05:46:04;0.93;;;0.50;;
60478;SDS011;46321;48.398;11.754;2022-09-27T05:48:29;2.10;;;0.70;;
60478;SDS011;46321;48.398;11.754;2022-09-27T05:50:55;0.75;;;0.57;;
60478;SDS011;46321;48.398;11.754;2022-09-27T05:53:21;0.88;;;0.70;;
60478;SDS011;46321;48.398;11.754;2022-09-27T05:55:46;1.00;;;0.60;;
60478;SDS011;46321;48.398;11.754;2022-09-27T05:58:12;0.70;;;0.50;;
60478;SDS011;46321;48.398;11.754;2022-09-27T06:00:40;0.50;;;0.40;;
60478;SDS011;46321;48.398;11.754;2022-09-27T06:03:05;1.20;;;0.60;;
60478;SDS011;46321;48.398;11.754;2022-09-27T06:05:34;0.80;;;0.50;;
60478;SDS011;46321;48.398;11.754;2022-09-27T06:08:01;0.90;;;0.52;;
60478;SDS011;46321;48.398;11.754;2022-09-27T06:10:29;0.93;;;0.52;;
60478;SDS011;46321;48.398;11.754;2022-09-27T06:12:59;1.02;;;0.70;;
60478;SDS011;46321;48.398;11.754;2022-09-27T06:15:27;0.90;;;0.57;;
60478;SDS011;46321;48.398;11.754;2022-09-27T06:17:53;1.75;;;0.70;;
60478;SDS011;46321;48.398;11.754;2022-09-27T06:20:18;0.85;;;0.80;;
60478;SDS011;46321;48.398;11.754;2022-09-27T06:22:44;0.90;;;0.57;;
60478;SDS011;46321;48.398;11.754;2022-09-27T06:25:10;1.85;;;0.70;;
60478;SDS011;46321;48.398;11.754;2022-09-27T06:27:36;0.98;;;0.70;;
60478;SDS011;46321;48.398;11.754;2022-09-27T06:30:01;0.98;;;0.60;;
60478;SDS011;46321;48.398;11.754;2022-09-27T06:32:26;2.58;;;0.90;;
60478;SDS011;46321;48.398;11.754;2022-09-27T06:34:51;0.70;;;0.50;;
60478;SDS011;46321;48.398;11.754;2022-09-27T06:37:17;0.65;;;0.50;;
60478;SDS011;46321;48.398;11.754;2022-09-27T06:39:42;0.82;;;0.60;;
60478;SDS011;46321;48.398;11.754;2022-09-27T06:42:07;1.02;;;0.63;;
60478;SDS011;46321;48.398;11.754;2022-09-27T06:44:35;1.13;;;0.60;;
60478;SDS011;46321;48.398;11.754;2022-09-27T06:47:00;2.08;;;0.50;;
60478;SDS011;46321;48.398;11.754;2022-09-27T06:49:25;1.88;;;0.75;;
60478;SDS011;46321;48.398;11.754;2022-09-27T06:51:50;1.17;;;0.60;;
60478;SDS011;46321;48.398;11.754;2022-09-27T06:54:17;0.70;;;0.52;;
60478;SDS011;46321;48.398;11.754;2022-09-27T06:56:42;1.13;;;0.70;;
60478;SDS011;46321;48.398;11.754;2022-09-27T06:59:08;0.95;;;0.63;;
60478;SDS011;46321;48.398;11.754;2022-09-27T07:01:51;0.98;;;0.50;;
60478;SDS011;46321;48.398;11.754;2022-09-27T07:04:17;3.58;;;0.73;;
60478;SDS011;46321;48.398;11.754;2022-09-27T07:06:43;1.02;;;0.70;;
60478;SDS011;46321;48.398;11.754;2022-09-27T07:09:08;2.60;;;0.70;;
60478;SDS011;46321;48.398;11.754;2022-09-27T07:11:34;0.73;;;0.50;;
60478;SDS011;46321;48.398;11.754;2022-09-27T07:14:01;1.48;;;0.52;;
60478;SDS011;46321;48.398;11.754;2022-09-27T07:16:28;1.30;;;0.70;;
60478;SDS011;46321;48.398;11.754;2022-09-27T07:18:54;3.90;;;1.60;;
60478;SDS011;46321;48.398;11.754;2022-09-27T07:21:19;1.70;;;0.93;;
60478;SDS011;46321;48.398;11.754;2022-09-27T07:23:45;1.42;;;0.50;;
60478;SDS011;46321;48.398;11.754;2022-09-27T07:26:11;1.55;;;0.60;;
60478;SDS011;46321;48.398;11.754;2022-09-27T07:28:36;1.65;;;0.68;;
60478;SDS011;46321;48.398;11.754;2022-09-27T07:31:02;2.70;;;0.70;;
60478;SDS011;46321;48.398;11.754;2022-09-27T07:33:29;2.10;;;0.60;;
60478;SDS011;46321;48.398;11.754;2022-09-27T07:35:55;1.77;;;0.60;;
60478;SDS011;46321;48.398;11.754;2022-09-27T07:38:20;2.20;;;0.60;;
60478;SDS011;46321;48.398;11.754;2022-09-27T07:40:46;1.08;;;0.60;;
60478;SDS011;46321;48.398;11.754;2022-09-27T07:43:11;2.05;;;0.57;;
60478;SDS011;46321;48.398;11.754;2022-09-27T07:45:37;4.20;;;0.63;;
60478;SDS011;46321;48.398;11.754;2022-09-27T07:48:07;2.17;;;0.60;;
60478;SDS011;46321;48.398;11.754;2022-09-27T07:50:34;2.95;;;0.70;;
60478;SDS011;46321;48.398;11.754;2022-09-27T07:52:59;2.83;;;0.60;;
60478;SDS011;46321;48.398;11.754;2022-09-27T07:55:25;1.67;;;0.65;;
60478;SDS011;46321;48.398;11.754;2022-09-27T07:57:50;2.17;;;0.65;;
60478;SDS011;46321;48.398;11.754;2022-09-27T08:00:16;1.77;;;0.75;;
60478;SDS011;46321;48.398;11.754;2022-09-27T08:02:44;0.88;;;0.52;;
60478;SDS011;46321;48.398;11.754;2022-09-27T08:05:10;2.45;;;0.70;;
60478;SDS011;46321;48.398;11.754;2022-09-27T08:07:36;2.55;;;0.60;;
60478;SDS011;46321;48.398;11.754;2022-09-27T08:10:03;1.80;;;0.60;;
60478;SDS011;46321;48.398;11.754;2022-09-27T08:12:30;1.27;;;0.70;;
60478;SDS011;46321;48.398;11.754;2022-09-27T08:14:55;2.35;;;0.95;;
60478;SDS011;46321;48.398;11.754;2022-09-27T08:17:25;1.63;;;1.23;;
60478;SDS011;46321;48.398;11.754;2022-09-27T08:19:51;1.95;;;0.80;;
60478;SDS011;46321;48.398;11.754;2022-09-27T08:22:16;1.40;;;0.63;;
60478;SDS011;46321;48.398;11.754;2022-09-27T08:24:41;2.42;;;0.70;;
60478;SDS011;46321;48.398;11.754;2022-09-27T08:27:07;0.75;;;0.55;;
60478;SDS011;46321;48.398;11.754;2022-09-27T08:29:35;2.70;;;0.80;;
60478;SDS011;46321;48.398;11.754;2022-09-27T08:32:01;3.03;;;0.80;;
60478;SDS011;46321;48.398;11.754;2022-09-27T08:34:27;1.58;;;0.70;;
60478;SDS011;46321;48.398;11.754;2022-09-27T08:36:53;1.25;;;0.55;;
60478;SDS011;46321;48.398;11.754;2022-09-27T08:39:20;1.15;;;0.60;;
60478;SDS011;46321;48.398;11.754;2022-09-27T08:42:12;1.90;;;0.73;;
60478;SDS011;46321;48.398;11.754;2022-09-27T08:44:53;1.45;;;0.70;;
60478;SDS011;46321;48.398;11.754;2022-09-27T08:50:17;1.80;;;0.40;;
60478;SDS011;46321;48.398;11.754;2022-09-27T08:52:56;2.35;;;0.60;;
60478;SDS011;46321;48.398;11.754;2022-09-27T08:55:41;2.25;;;1.30;;
60478;SDS011;46321;48.398;11.754;2022-09-27T08:58:17;1.45;;;0.50;;
60478;SDS011;46321;48.398;11.754;2022-09-27T09:00:48;2.67;;;0.60;;
60478;SDS011;46321;48.398;11.754;2022-09-27T09:03:23;2.20;;;0.80;;
60478;SDS011;46321;48.398;11.754;2022-09-27T09:06:02;1.02;;;0.60;;
60478;SDS011;46321;48.398;11.754;2022-09-27T09:15:10;1.05;;;0.40;;
60478;SDS011;46321;48.398;11.754;2022-09-27T09:25:59;1.23;;;0.50;;
60478;SDS011;46321;48.398;11.754;2022-09-27T09:33:33;0.95;;;0.40;;
60478;SDS011;46321;48.398;11.754;2022-09-27T09:36:08;1.13;;;0.40;;
60478;SDS011;46321;48.398;11.754;2022-09-27T09:38:36;0.45;;;0.25;;
60478;SDS011;46321;48.398;11.754;2022-09-27T09:41:07;1.65;;;0.40;;
60478;SDS011;46321;48.398;11.754;2022-09-27T09:44:04;0.60;;;0.30;;
60478;SDS011;46321;48.398;11.754;2022-09-27T09:46:49;0.57;;;0.38;;
60478;SDS011;46321;48.398;11.754;2022-09-27T09:52:04;0.73;;;0.30;;
60478;SDS011;46321;48.398;11.754;2022-09-27T09:59:48;0.38;;;0.20;;
60478;SDS011;46321;48.398;11.754;2022-09-27T10:05:04;0.70;;;0.43;;
60478;SDS011;46321;48.398;11.754;2022-09-27T10:07:31;0.77;;;0.30;;
60478;SDS011;46321;48.398;11.754;2022-09-27T10:10:00;0.50;;;0.35;;
60478;SDS011;46321;48.398;11.754;2022-09-27T10:12:29;0.30;;;0.30;;
60478;SDS011;46321;48.398;11.754;2022-09-27T10:14:54;1.70;;;0.38;;
60478;SDS011;46321;48.398;11.754;2022-09-27T10:17:24;0.80;;;0.40;;
60478;SDS011;46321;48.398;11.754;2022-09-27T10:19:57;1.13;;;0.30;;
60478;SDS011;46321;48.398;11.754;2022-09-27T10:22:25;2.97;;;0.28;;
60478;SDS011;46321;48.398;11.754;2022-09-27T10:25:00;2.57;;;0.40;;
60478;SDS011;46321;48.398;11.754;2022-09-27T10:27:28;3.03;;;0.60;;
60478;SDS011;46321;48.398;11.754;2022-09-27T10:30:03;1.48;;;0.30;;
60478;SDS011;46321;48.398;11.754;2022-09-27T10:32:31;0.88;;;0.35;;
60478;SDS011;46321;48.398;11.754;2022-09-27T10:35:20;0.38;;;0.22;;
60478;SDS011;46321;48.398;11.754;2022-09-27T10:40:43;0.30;;;0.30;;
60478;SDS011;46321;48.398;11.754;2022-09-27T10:46:05;0.40;;;0.30;;
60478;SDS011;46321;48.398;11.754;2022-09-27T10:48:37;0.40;;;0.30;;
60478;SDS011;46321;48.398;11.754;2022-09-27T10:51:06;2.08;;;0.40;;
60478;SDS011;46321;48.398;11.754;2022-09-27T10:53:54;2.75;;;0.30;;
60478;SDS011;46321;48.398;11.754;2022-09-27T10:56:31;1.20;;;0.70;;
60478;SDS011;46321;48.398;11.754;2022-09-27T10:58:58;1.25;;;0.57;;
60478;SDS011;46321;48.398;11.754;2022-09-27T11:01:25;3.28;;;0.77;;
60478;SDS011;46321;48.398;11.754;2022-09-27T11:04:02;0.20;;;0.13;;
60478;SDS011;46321;48.398;11.754;2022-09-27T11:06:29;3.60;;;0.30;;
60478;SDS011;46321;48.398;11.754;2022-09-27T11:11:48;0.30;;;0.20;;
60478;SDS011;46321;48.398;11.754;2022-09-27T11:14:18;0.30;;;0.20;;
60478;SDS011;46321;48.398;11.754;2022-09-27T11:22:12;0.50;;;0.20;;
60478;SDS011;46321;48.398;11.754;2022-09-27T11:25:17;0.30;;;0.20;;
60478;SDS011;46321;48.398;11.754;2022-09-27T11:27:53;3.25;;;0.40;;
60478;SDS011;46321;48.398;11.754;2022-09-27T11:30:29;1.88;;;0.98;;
60478;SDS011;46321;48.398;11.754;2022-09-27T11:33:31;1.25;;;0.20;;
60478;SDS011;46321;48.398;11.754;2022-09-27T11:36:25;0.10;;;0.10;;
60478;SDS011;46321;48.398;11.754;2022-09-27T11:39:01;0.50;;;0.25;;
60478;SDS011;46321;48.398;11.754;2022-09-27T11:41:45;1.48;;;0.30;;
60478;SDS011;46321;48.398;11.754;2022-09-27T11:50:23;0.20;;;0.20;;
60478;SDS011;46321;48.398;11.754;2022-09-27T11:53:33;1.08;;;0.30;;
60478;SDS011;46321;48.398;11.754;2022-09-27T11:59:16;1.33;;;0.38;;
60478;SDS011;46321;48.398;11.754;2022-09-27T12:08:07;0.55;;;0.20;;
60478;SDS011;46321;48.398;11.754;2022-09-27T12:10:40;0.20;;;0.20;;
60478;SDS011;46321;48.398;11.754;2022-09-27T12:13:11;0.93;;;0.30;;
60478;SDS011;46321;48.398;11.754;2022-09-27T12:15:39;0.30;;;0.30;;
60478;SDS011;46321;48.398;11.754;2022-09-27T12:18:25;0.57;;;0.30;;
60478;SDS011;46321;48.398;11.754;2022-09-27T12:20:55;1.88;;;0.20;;
60478;SDS011;46321;48.398;11.754;2022-09-27T12:23:37;1.10;;;0.60;;
60478;SDS011;46321;48.398;11.754;2022-09-27T12:26:16;1.77;;;0.70;;
60478;SDS011;46321;48.398;11.754;2022-09-27T12:31:29;0.50;;;0.30;;
60478;SDS011;46321;48.398;11.754;2022-09-27T12:34:05;0.63;;;0.40;;
60478;SDS011;46321;48.398;11.754;2022-09-27T12:36:40;0.30;;;0.20;;
60478;SDS011;46321;48.398;11.754;2022-09-27T12:39:21;1.10;;;0.20;;
60478;SDS011;46321;48.398;11.754;2022-09-27T12:42:18;1.67;;;0.20;;
60478;SDS011;46321;48.398;11.754;2022-09-27T12:44:46;0.22;;;0.20;;
60478;SDS011;46321;48.398;11.754;2022-09-27T12:50:35;0.43;;;0.40;;
60478;SDS011;46321;48.398;11.754;2022-09-27T12:53:09;0.40;;;0.30;;
60478;SDS011;46321;48.398;11.754;2022-09-27T13:01:03;4.93;;;2.78;;
60478;SDS011;46321;48.398;11.754;2022-09-27T13:14:25;5.97;;;3.35;;
60478;SDS011;46321;48.398;11.754;2022-09-27T13:16:53;2.20;;;1.63;;
60478;SDS011;46321;48.398;11.754;2022-09-27T13:21:59;3.70;;;2.00;;
60478;SDS011;46321;48.398;11.754;2022-09-27T13:29:48;2.63;;;0.60;;
60478;SDS011;46321;48.398;11.754;2022-09-27T13:32:18;0.90;;;0.60;;
60478;SDS011;46321;48.398;11.754;2022-09-27T13:34:49;0.90;;;0.55;;
60478;SDS011;46321;48.398;11.754;2022-09-27T13:40:09;1.23;;;0.85;;
60478;SDS011;46321;48.398;11.754;2022-09-27T13:42:37;2.20;;;0.70;;
60478;SDS011;46321;48.398;11.754;2022-09-27T13:47:49;2.25;;;0.80;;
60478;SDS011;46321;48.398;11.754;2022-09-27T13:50:25;0.93;;;0.50;;
60478;SDS011;46321;48.398;11.754;2022-09-27T13:53:03;1.88;;;0.70;;
60478;SDS011;46321;48.398;11.754;2022-09-27T13:55:40;1.95;;;0.68;;
60478;SDS011;46321;48.398;11.754;2022-09-27T14:01:02;1.10;;;0.70;;
60478;SDS011;46321;48.398;11.754;2022-09-27T14:03:38;3.42;;;0.68;;
60478;SDS011;46321;48.398;11.754;2022-09-27T14:06:10;7.57;;;4.07;;
60478;SDS011;46321;48.398;11.754;2022-09-27T14:08:47;7.28;;;3.15;;
60478;SDS011;46321;48.398;11.754;2022-09-27T14:11:35;4.55;;;1.50;;
60478;SDS011;46321;48.398;11.754;2022-09-27T14:14:03;1.13;;;0.70;;
60478;SDS011;46321;48.398;11.754;2022-09-27T14:16:32;3.28;;;0.77;;
60478;SDS011;46321;48.398;11.754;2022-09-27T14:18:59;0.98;;;0.68;;
60478;SDS011;46321;48.398;11.754;2022-09-27T14:21:30;1.08;;;0.57;;
60478;SDS011;46321;48.398;11.754;2022-09-27T14:26:45;4.93;;;0.70;;
60478;SDS011;46321;48.398;11.754;2022-09-27T14:29:17;1.45;;;0.60;;
60478;SDS011;46321;48.398;11.754;2022-09-27T14:31:46;1.15;;;0.60;;
60478;SDS011;46321;48.398;11.754;2022-09-27T14:34:14;2.30;;;0.52;;
60478;SDS011;46321;48.398;11.754;2022-09-27T14:36:40;1.00;;;0.38;;
60478;SDS011;46321;48.398;11.754;2022-09-27T14:39:33;0.60;;;0.32;;
60478;SDS011;46321;48.398;11.754;2022-09-27T14:42:02;0.60;;;0.40;;
60478;SDS011;46321;48.398;11.754;2022-09-27T14:44:30;3.22;;;0.50;;
60478;SDS011;46321;48.398;11.754;2022-09-27T14:47:14;0.43;;;0.30;;
60478;SDS011;46321;48.398;11.754;2022-09-27T14:49:50;0.75;;;0.40;;
60478;SDS011;46321;48.398;11.754;2022-09-27T14:52:27;0.85;;;0.40;;
60478;SDS011;46321;48.398;11.754;2022-09-27T14:55:07;0.85;;;0.50;;
60478;SDS011;46321;48.398;11.754;2022-09-27T14:57:37;2.80;;;0.50;;
60478;SDS011;46321;48.398;11.754;2022-09-27T15:00:25;3.55;;;1.13;;
60478;SDS011;46321;48.398;11.754;2022-09-27T15:02:56;1.58;;;0.90;;
60478;SDS011;46321;48.398;11.754;2022-09-27T15:05:28;0.75;;;0.40;;
60478;SDS011;46321;48.398;11.754;2022-09-27T15:07:56;0.65;;;0.50;;
60478;SDS011;46321;48.398;11.754;2022-09-27T15:10:23;1.75;;;0.85;;
60478;SDS011;46321;48.398;11.754;2022-09-27T15:12:52;2.88;;;1.27;;
60478;SDS011;46321;48.398;11.754;2022-09-27T15:15:22;3.47;;;1.40;;
60478;SDS011;46321;48.398;11.754;2022-09-27T15:17:50;0.95;;;0.40;;
60478;SDS011;46321;48.398;11.754;2022-09-27T15:22:52;3.22;;;0.47;;
60478;SDS011;46321;48.398;11.754;2022-09-27T15:25:23;1.85;;;0.40;;
60478;SDS011;46321;48.398;11.754;2022-09-27T15:27:56;2.03;;;0.60;;
60478;SDS011;46321;48.398;11.754;2022-09-27T15:30:25;1.13;;;0.50;;
60478;SDS011;46321;48.398;11.754;2022-09-27T15:33:34;1.20;;;0.50;;
60478;SDS011;46321;48.398;11.754;2022-09-27T15:36:04;0.50;;;0.47;;
60478;SDS011;46321;48.398;11.754;2022-09-27T15:43:36;1.42;;;0.60;;
60478;SDS011;46321;48.398;11.754;2022-09-27T15:51:44;2.53;;;0.50;;
60478;SDS011;46321;48.398;11.754;2022-09-27T15:54:10;1.33;;;0.60;;
60478;SDS011;46321;48.398;11.754;2022-09-27T15:56:37;1.45;;;0.70;;
60478;SDS011;46321;48.398;11.754;2022-09-27T15:59:03;2.05;;;0.70;;
60478;SDS011;46321;48.398;11.754;2022-09-27T16:01:31;1.90;;;0.65;;
60478;SDS011;46321;48.398;11.754;2022-09-27T16:03:57;1.10;;;0.68;;
60478;SDS011;46321;48.398;11.754;2022-09-27T16:06:23;1.08;;;0.80;;
60478;SDS011;46321;48.398;11.754;2022-09-27T16:08:51;1.15;;;0.70;;
60478;SDS011;46321;48.398;11.754;2022-09-27T16:11:16;1.33;;;0.50;;
60478;SDS011;46321;48.398;11.754;2022-09-27T16:13:42;0.85;;;0.60;;
60478;SDS011;46321;48.398;11.754;2022-09-27T16:16:11;0.80;;;0.50;;
60478;SDS011;46321;48.398;11.754;2022-09-27T16:18:39;2.15;;;0.38;;
60478;SDS011;46321;48.398;11.754;2022-09-27T16:21:05;0.30;;;0.30;;
60478;SDS011;46321;48.398;11.754;2022-09-27T16:23:30;2.72;;;0.38;;
60478;SDS011;46321;48.398;11.754;2022-09-27T16:25:55;0.43;;;0.25;;
60478;SDS011;46321;48.398;11.754;2022-09-27T16:28:21;1.05;;;0.60;;
60478;SDS011;46321;48.398;11.754;2022-09-27T16:30:46;0.85;;;0.35;;
60478;SDS011;46321;48.398;11.754;2022-09-27T16:33:12;1.70;;;0.65;;
60478;SDS011;46321;48.398;11.754;2022-09-27T16:35:37;0.50;;;0.30;;
60478;SDS011;46321;48.398;11.754;2022-09-27T16:38:05;0.50;;;0.40;;
60478;SDS011;46321;48.398;11.754;2022-09-27T16:40:30;0.77;;;0.40;;
60478;SDS011;46321;48.398;11.754;2022-09-27T16:42:56;0.98;;;0.75;;
60478;SDS011;46321;48.398;11.754;2022-09-27T16:45:22;0.40;;;0.30;;
60478;SDS011;46321;48.398;11.754;2022-09-27T16:47:47;2.80;;;0.40;;
60478;SDS011;46321;48.398;11.754;2022-09-27T16:50:12;0.40;;;0.30;;
60478;SDS011;46321;48.398;11.754;2022-09-27T16:52:57;0.50;;;0.50;;
60478;SDS011;46321;48.398;11.754;2022-09-27T16:55:24;0.70;;;0.45;;
60478;SDS011;46321;48.398;11.754;2022-09-27T16:57:52;1.00;;;0.57;;
60478;SDS011;46321;48.398;11.754;2022-09-27T17:00:18;1.42;;;0.57;;
60478;SDS011;46321;48.398;11.754;2022-09-27T17:02:45;5.28;;;2.50;;
60478;SDS011;46321;48.398;11.754;2022-09-27T17:05:12;5.53;;;1.67;;
60478;SDS011;46321;48.398;11.754;2022-09-27T17:07:37;1.17;;;0.90;;
60478;SDS011;46321;48.398;11.754;2022-09-27T17:10:03;0.65;;;0.50;;
60478;SDS011;46321;48.398;11.754;2022-09-27T17:12:30;1.67;;;0.63;;
60478;SDS011;46321;48.398;11.754;2022-09-27T17:14:56;2.17;;;0.65;;
60478;SDS011;46321;48.398;11.754;2022-09-27T17:17:21;1.30;;;0.40;;
60478;SDS011;46321;48.398;11.754;2022-09-27T17:19:47;0.43;;;0.30;;
60478;SDS011;46321;48.398;11.754;2022-09-27T17:22:12;0.65;;;0.40;;
60478;SDS011;46321;48.398;11.754;2022-09-27T17:24:37;0.80;;;0.43;;
60478;SDS011;46321;48.398;11.754;2022-09-27T17:27:03;0.45;;;0.30;;
60478;SDS011;46321;48.398;11.754;2022-09-27T17:29:28;0.63;;;0.40;;
60478;SDS011;46321;48.398;11.754;2022-09-27T17:31:55;1.48;;;0.80;;